sensor_id;sensor_type;location;lat;lon;timestamp;P1;durP1;ratioP1;P2;durP2;ratioP2
31764;SDS011;18338;53.240;8.798;2023-03-01T00:00:49;5.57;;;4.37;;
31764;SDS011;18338;53.240;8.798;2023-03-01T00:03:16;7.10;;;4.27;;
31764;SDS011;18338;53.240;8.798;2023-03-01T00:05:46;8.73;;;5.10;;
31764;SDS011;18338;53.240;8.798;2023-03-01T00:08:13;7.90;;;5.20;;
31764;SDS011;18338;53.240;8.798;2023-03-01T00:10:39;6.30;;;4.20;;
31764;SDS011;18338;53.240;8.798;2023-03-01T00:13:06;6.80;;;4.57;;
31764;SDS011;18338;53.240;8.798;2023-03-01T00:15:33;7.40;;;4.63;;
31764;SDS011;18338;53.240;8.798;2023-03-01T00:18:01;5.07;;;4.30;;
31764;SDS011;18338;53.240;8.798;2023-03-01T00:20:28;5.30;;;3.83;;
31764;SDS011;18338;53.240;8.798;2023-03-01T00:22:55;6.20;;;4.63;;
31764;SDS011;18338;53.240;8.798;2023-03-01T00:25:21;5.97;;;4.13;;
31764;SDS011;18338;53.240;8.798;2023-03-01T00:27:48;6.17;;;4.57;;
31764;SDS011;18338;53.240;8.798;2023-03-01T00:30:15;8.03;;;4.77;;
31764;SDS011;18338;53.240;8.798;2023-03-01T00:32:42;5.80;;;4.30;;
31764;SDS011;18338;53.240;8.798;2023-03-01T00:35:08;5.97;;;4.03;;
31764;SDS011;18338;53.240;8.798;2023-03-01T00:37:35;6.93;;;4.13;;
31764;SDS011;18338;53.240;8.798;2023-03-01T00:40:02;5.77;;;4.10;;
31764;SDS011;18338;53.240;8.798;2023-03-01T00:42:32;6.73;;;4.50;;
31764;SDS011;18338;53.240;8.798;2023-03-01T00:44:59;9.00;;;4.10;;
31764;SDS011;18338;53.240;8.798;2023-03-01T00:47:28;7.83;;;4.60;;
31764;SDS011;18338;53.240;8.798;2023-03-01T00:49:55;7.60;;;4.30;;
31764;SDS011;18338;53.240;8.798;2023-03-01T00:52:21;9.83;;;5.50;;
31764;SDS011;18338;53.240;8.798;2023-03-01T00:54:48;6.23;;;4.40;;
31764;SDS011;18338;53.240;8.798;2023-03-01T00:57:18;6.40;;;4.60;;
31764;SDS011;18338;53.240;8.798;2023-03-01T00:59:45;6.60;;;4.47;;
31764;SDS011;18338;53.240;8.798;2023-03-01T01:02:11;6.93;;;4.10;;
31764;SDS011;18338;53.240;8.798;2023-03-01T01:04:38;5.70;;;3.93;;
31764;SDS011;18338;53.240;8.798;2023-03-01T01:07:05;5.93;;;4.00;;
31764;SDS011;18338;53.240;8.798;2023-03-01T01:09:32;8.50;;;4.30;;
31764;SDS011;18338;53.240;8.798;2023-03-01T01:11:59;7.70;;;4.07;;
31764;SDS011;18338;53.240;8.798;2023-03-01T01:14:25;7.43;;;3.80;;
31764;SDS011;18338;53.240;8.798;2023-03-01T01:16:53;4.47;;;3.63;;
31764;SDS011;18338;53.240;8.798;2023-03-01T01:19:19;6.10;;;4.00;;
31764;SDS011;18338;53.240;8.798;2023-03-01T01:21:47;5.43;;;3.47;;
31764;SDS011;18338;53.240;8.798;2023-03-01T01:24:14;6.00;;;4.13;;
31764;SDS011;18338;53.240;8.798;2023-03-01T01:26:41;5.90;;;4.57;;
31764;SDS011;18338;53.240;8.798;2023-03-01T01:29:09;8.00;;;5.27;;
31764;SDS011;18338;53.240;8.798;2023-03-01T01:31:36;8.47;;;5.83;;
31764;SDS011;18338;53.240;8.798;2023-03-01T01:34:04;6.57;;;4.73;;
31764;SDS011;18338;53.240;8.798;2023-03-01T01:36:33;7.20;;;4.17;;
31764;SDS011;18338;53.240;8.798;2023-03-01T01:39:01;5.93;;;3.93;;
31764;SDS011;18338;53.240;8.798;2023-03-01T01:41:28;5.47;;;4.17;;
31764;SDS011;18338;53.240;8.798;2023-03-01T01:47:00;6.63;;;4.20;;
31764;SDS011;18338;53.240;8.798;2023-03-01T01:49:41;5.20;;;3.37;;
31764;SDS011;18338;53.240;8.798;2023-03-01T01:52:09;4.97;;;3.73;;
31764;SDS011;18338;53.240;8.798;2023-03-01T01:55:03;6.83;;;4.23;;
31764;SDS011;18338;53.240;8.798;2023-03-01T01:57:35;5.73;;;3.87;;
31764;SDS011;18338;53.240;8.798;2023-03-01T02:00:08;9.17;;;4.20;;
31764;SDS011;18338;53.240;8.798;2023-03-01T02:02:38;6.00;;;3.80;;
31764;SDS011;18338;53.240;8.798;2023-03-01T02:07:45;5.43;;;4.07;;
31764;SDS011;18338;53.240;8.798;2023-03-01T02:10:13;5.03;;;4.00;;
31764;SDS011;18338;53.240;8.798;2023-03-01T02:12:41;5.13;;;4.23;;
31764;SDS011;18338;53.240;8.798;2023-03-01T02:15:08;5.97;;;4.00;;
31764;SDS011;18338;53.240;8.798;2023-03-01T02:17:35;6.73;;;4.10;;
31764;SDS011;18338;53.240;8.798;2023-03-01T02:23:07;6.80;;;3.80;;
31764;SDS011;18338;53.240;8.798;2023-03-01T02:25:40;7.00;;;4.47;;
31764;SDS011;18338;53.240;8.798;2023-03-01T02:30:49;5.67;;;4.47;;
31764;SDS011;18338;53.240;8.798;2023-03-01T02:33:55;5.87;;;4.20;;
31764;SDS011;18338;53.240;8.798;2023-03-01T02:36:24;5.43;;;3.93;;
31764;SDS011;18338;53.240;8.798;2023-03-01T02:38:58;6.57;;;4.00;;
31764;SDS011;18338;53.240;8.798;2023-03-01T02:41:28;5.90;;;4.40;;
31764;SDS011;18338;53.240;8.798;2023-03-01T02:43:58;6.30;;;4.43;;
31764;SDS011;18338;53.240;8.798;2023-03-01T02:46:25;6.93;;;4.40;;
31764;SDS011;18338;53.240;8.798;2023-03-01T02:48:53;6.50;;;4.60;;
31764;SDS011;18338;53.240;8.798;2023-03-01T02:56:39;6.57;;;5.07;;
31764;SDS011;18338;53.240;8.798;2023-03-01T02:59:07;4.93;;;4.17;;
31764;SDS011;18338;53.240;8.798;2023-03-01T03:01:35;6.37;;;4.70;;
31764;SDS011;18338;53.240;8.798;2023-03-01T03:04:09;6.67;;;4.13;;
31764;SDS011;18338;53.240;8.798;2023-03-01T03:06:37;5.50;;;4.40;;
31764;SDS011;18338;53.240;8.798;2023-03-01T03:09:04;6.83;;;4.80;;
31764;SDS011;18338;53.240;8.798;2023-03-01T03:11:31;6.50;;;4.43;;
31764;SDS011;18338;53.240;8.798;2023-03-01T03:13:58;6.40;;;4.33;;
31764;SDS011;18338;53.240;8.798;2023-03-01T03:16:25;5.77;;;4.20;;
31764;SDS011;18338;53.240;8.798;2023-03-01T03:18:52;5.20;;;4.07;;
31764;SDS011;18338;53.240;8.798;2023-03-01T03:21:20;5.07;;;3.93;;
31764;SDS011;18338;53.240;8.798;2023-03-01T03:23:46;6.97;;;3.80;;
31764;SDS011;18338;53.240;8.798;2023-03-01T03:26:13;6.10;;;4.00;;
31764;SDS011;18338;53.240;8.798;2023-03-01T03:28:41;6.53;;;4.30;;
31764;SDS011;18338;53.240;8.798;2023-03-01T03:31:07;6.37;;;3.73;;
31764;SDS011;18338;53.240;8.798;2023-03-01T03:33:35;7.40;;;4.53;;
31764;SDS011;18338;53.240;8.798;2023-03-01T03:36:02;6.07;;;4.03;;
31764;SDS011;18338;53.240;8.798;2023-03-01T03:38:29;7.77;;;4.23;;
31764;SDS011;18338;53.240;8.798;2023-03-01T03:41:00;7.20;;;4.40;;
31764;SDS011;18338;53.240;8.798;2023-03-01T03:43:30;8.47;;;4.73;;
31764;SDS011;18338;53.240;8.798;2023-03-01T03:45:59;7.00;;;4.60;;
31764;SDS011;18338;53.240;8.798;2023-03-01T03:48:26;7.87;;;4.27;;
31764;SDS011;18338;53.240;8.798;2023-03-01T03:50:53;7.43;;;4.20;;
31764;SDS011;18338;53.240;8.798;2023-03-01T03:53:22;6.60;;;4.57;;
31764;SDS011;18338;53.240;8.798;2023-03-01T03:55:50;5.20;;;4.20;;
31764;SDS011;18338;53.240;8.798;2023-03-01T03:58:18;5.93;;;4.23;;
31764;SDS011;18338;53.240;8.798;2023-03-01T04:00:47;6.30;;;4.37;;
31764;SDS011;18338;53.240;8.798;2023-03-01T04:03:16;8.00;;;4.53;;
31764;SDS011;18338;53.240;8.798;2023-03-01T04:05:44;6.77;;;4.30;;
31764;SDS011;18338;53.240;8.798;2023-03-01T04:08:11;6.20;;;4.20;;
31764;SDS011;18338;53.240;8.798;2023-03-01T04:10:40;6.90;;;4.30;;
31764;SDS011;18338;53.240;8.798;2023-03-01T04:13:10;7.30;;;4.07;;
31764;SDS011;18338;53.240;8.798;2023-03-01T04:15:39;4.83;;;4.33;;
31764;SDS011;18338;53.240;8.798;2023-03-01T04:18:06;8.03;;;4.30;;
31764;SDS011;18338;53.240;8.798;2023-03-01T04:20:35;6.87;;;4.50;;
31764;SDS011;18338;53.240;8.798;2023-03-01T04:23:06;6.20;;;4.13;;
31764;SDS011;18338;53.240;8.798;2023-03-01T04:25:49;4.80;;;4.23;;
31764;SDS011;18338;53.240;8.798;2023-03-01T04:28:22;5.53;;;4.17;;
31764;SDS011;18338;53.240;8.798;2023-03-01T04:30:52;7.07;;;4.60;;
31764;SDS011;18338;53.240;8.798;2023-03-01T04:33:20;7.13;;;4.40;;
31764;SDS011;18338;53.240;8.798;2023-03-01T04:35:47;5.40;;;3.63;;
31764;SDS011;18338;53.240;8.798;2023-03-01T04:38:18;8.67;;;6.03;;
31764;SDS011;18338;53.240;8.798;2023-03-01T04:40:45;8.10;;;5.00;;
31764;SDS011;18338;53.240;8.798;2023-03-01T04:43:12;6.37;;;4.23;;
31764;SDS011;18338;53.240;8.798;2023-03-01T04:45:40;8.80;;;4.73;;
31764;SDS011;18338;53.240;8.798;2023-03-01T04:48:07;7.70;;;5.17;;
31764;SDS011;18338;53.240;8.798;2023-03-01T04:50:34;7.90;;;4.40;;
31764;SDS011;18338;53.240;8.798;2023-03-01T04:53:01;6.63;;;4.73;;
31764;SDS011;18338;53.240;8.798;2023-03-01T04:55:28;7.57;;;4.97;;
31764;SDS011;18338;53.240;8.798;2023-03-01T04:57:55;6.27;;;4.60;;
31764;SDS011;18338;53.240;8.798;2023-03-01T05:00:22;7.00;;;4.37;;
31764;SDS011;18338;53.240;8.798;2023-03-01T05:02:50;7.30;;;4.60;;
31764;SDS011;18338;53.240;8.798;2023-03-01T05:05:32;7.27;;;4.13;;
31764;SDS011;18338;53.240;8.798;2023-03-01T05:08:01;7.03;;;4.43;;
31764;SDS011;18338;53.240;8.798;2023-03-01T05:10:30;6.20;;;4.03;;
31764;SDS011;18338;53.240;8.798;2023-03-01T05:12:58;7.77;;;4.37;;
31764;SDS011;18338;53.240;8.798;2023-03-01T05:15:26;7.53;;;4.70;;
31764;SDS011;18338;53.240;8.798;2023-03-01T05:17:55;8.27;;;4.97;;
31764;SDS011;18338;53.240;8.798;2023-03-01T05:20:25;7.13;;;4.60;;
31764;SDS011;18338;53.240;8.798;2023-03-01T05:22:55;7.27;;;4.67;;
31764;SDS011;18338;53.240;8.798;2023-03-01T05:25:24;7.47;;;4.40;;
31764;SDS011;18338;53.240;8.798;2023-03-01T05:27:52;7.53;;;4.30;;
31764;SDS011;18338;53.240;8.798;2023-03-01T05:30:19;9.87;;;4.37;;
31764;SDS011;18338;53.240;8.798;2023-03-01T05:32:47;8.63;;;4.90;;
31764;SDS011;18338;53.240;8.798;2023-03-01T05:35:16;5.73;;;4.07;;
31764;SDS011;18338;53.240;8.798;2023-03-01T05:37:45;8.40;;;5.13;;
31764;SDS011;18338;53.240;8.798;2023-03-01T05:40:14;6.30;;;4.27;;
31764;SDS011;18338;53.240;8.798;2023-03-01T05:42:43;7.67;;;4.57;;
31764;SDS011;18338;53.240;8.798;2023-03-01T05:45:10;7.53;;;4.47;;
31764;SDS011;18338;53.240;8.798;2023-03-01T05:47:42;10.23;;;4.43;;
31764;SDS011;18338;53.240;8.798;2023-03-01T05:50:11;6.67;;;4.40;;
31764;SDS011;18338;53.240;8.798;2023-03-01T05:52:46;7.10;;;4.27;;
31764;SDS011;18338;53.240;8.798;2023-03-01T05:55:15;7.47;;;4.43;;
31764;SDS011;18338;53.240;8.798;2023-03-01T05:57:43;8.93;;;4.87;;
31764;SDS011;18338;53.240;8.798;2023-03-01T06:00:11;8.93;;;4.70;;
31764;SDS011;18338;53.240;8.798;2023-03-01T06:02:42;8.57;;;5.03;;
31764;SDS011;18338;53.240;8.798;2023-03-01T06:05:11;8.70;;;5.30;;
31764;SDS011;18338;53.240;8.798;2023-03-01T06:07:39;6.10;;;4.83;;
31764;SDS011;18338;53.240;8.798;2023-03-01T06:10:07;6.57;;;5.07;;
31764;SDS011;18338;53.240;8.798;2023-03-01T06:12:35;7.63;;;5.07;;
31764;SDS011;18338;53.240;8.798;2023-03-01T06:15:03;12.27;;;5.73;;
31764;SDS011;18338;53.240;8.798;2023-03-01T06:17:34;6.77;;;5.53;;
31764;SDS011;18338;53.240;8.798;2023-03-01T06:20:33;10.17;;;6.57;;
31764;SDS011;18338;53.240;8.798;2023-03-01T06:23:00;10.43;;;6.90;;
31764;SDS011;18338;53.240;8.798;2023-03-01T06:25:27;11.23;;;7.17;;
31764;SDS011;18338;53.240;8.798;2023-03-01T06:27:55;10.57;;;7.00;;
31764;SDS011;18338;53.240;8.798;2023-03-01T06:30:23;12.40;;;7.70;;
31764;SDS011;18338;53.240;8.798;2023-03-01T06:32:51;11.07;;;7.40;;
31764;SDS011;18338;53.240;8.798;2023-03-01T06:35:19;13.50;;;7.23;;
31764;SDS011;18338;53.240;8.798;2023-03-01T06:37:47;12.43;;;8.47;;
31764;SDS011;18338;53.240;8.798;2023-03-01T06:40:16;13.60;;;7.97;;
31764;SDS011;18338;53.240;8.798;2023-03-01T06:42:47;12.50;;;8.27;;
31764;SDS011;18338;53.240;8.798;2023-03-01T06:45:16;11.27;;;7.37;;
31764;SDS011;18338;53.240;8.798;2023-03-01T06:47:47;11.60;;;7.63;;
31764;SDS011;18338;53.240;8.798;2023-03-01T06:50:15;10.30;;;7.60;;
31764;SDS011;18338;53.240;8.798;2023-03-01T06:52:43;9.50;;;7.73;;
31764;SDS011;18338;53.240;8.798;2023-03-01T06:55:11;9.90;;;7.47;;
31764;SDS011;18338;53.240;8.798;2023-03-01T06:57:39;11.70;;;7.03;;
31764;SDS011;18338;53.240;8.798;2023-03-01T07:00:06;11.40;;;7.90;;
31764;SDS011;18338;53.240;8.798;2023-03-01T07:02:35;9.20;;;7.10;;
31764;SDS011;18338;53.240;8.798;2023-03-01T07:05:02;12.43;;;7.03;;
31764;SDS011;18338;53.240;8.798;2023-03-01T07:07:29;9.30;;;6.63;;
31764;SDS011;18338;53.240;8.798;2023-03-01T07:09:56;11.50;;;6.67;;
31764;SDS011;18338;53.240;8.798;2023-03-01T07:12:23;12.37;;;6.13;;
31764;SDS011;18338;53.240;8.798;2023-03-01T07:14:50;9.23;;;6.80;;
31764;SDS011;18338;53.240;8.798;2023-03-01T07:17:17;8.07;;;6.00;;
31764;SDS011;18338;53.240;8.798;2023-03-01T07:19:45;8.17;;;5.93;;
31764;SDS011;18338;53.240;8.798;2023-03-01T07:22:11;7.03;;;5.60;;
31764;SDS011;18338;53.240;8.798;2023-03-01T07:24:38;9.53;;;6.10;;
31764;SDS011;18338;53.240;8.798;2023-03-01T07:27:06;8.97;;;5.40;;
31764;SDS011;18338;53.240;8.798;2023-03-01T07:29:33;8.43;;;5.23;;
31764;SDS011;18338;53.240;8.798;2023-03-01T07:32:03;9.67;;;5.47;;
31764;SDS011;18338;53.240;8.798;2023-03-01T07:34:31;7.97;;;5.30;;
31764;SDS011;18338;53.240;8.798;2023-03-01T07:36:58;7.67;;;5.77;;
31764;SDS011;18338;53.240;8.798;2023-03-01T07:39:24;6.70;;;5.10;;
31764;SDS011;18338;53.240;8.798;2023-03-01T07:41:51;11.47;;;5.63;;
31764;SDS011;18338;53.240;8.798;2023-03-01T07:44:18;10.77;;;5.63;;
31764;SDS011;18338;53.240;8.798;2023-03-01T07:46:45;13.27;;;6.00;;
31764;SDS011;18338;53.240;8.798;2023-03-01T07:49:11;7.03;;;4.90;;
31764;SDS011;18338;53.240;8.798;2023-03-01T07:51:38;10.03;;;5.27;;
31764;SDS011;18338;53.240;8.798;2023-03-01T07:54:05;10.40;;;5.80;;
31764;SDS011;18338;53.240;8.798;2023-03-01T07:56:32;9.50;;;6.13;;
31764;SDS011;18338;53.240;8.798;2023-03-01T07:58:59;18.07;;;8.60;;
31764;SDS011;18338;53.240;8.798;2023-03-01T08:01:26;19.90;;;10.83;;
31764;SDS011;18338;53.240;8.798;2023-03-01T08:03:53;16.40;;;9.13;;
31764;SDS011;18338;53.240;8.798;2023-03-01T08:06:21;20.87;;;10.40;;
31764;SDS011;18338;53.240;8.798;2023-03-01T08:08:47;20.10;;;11.80;;
31764;SDS011;18338;53.240;8.798;2023-03-01T08:11:14;15.90;;;10.17;;
31764;SDS011;18338;53.240;8.798;2023-03-01T08:13:42;12.67;;;8.57;;
31764;SDS011;18338;53.240;8.798;2023-03-01T08:16:10;12.83;;;8.77;;
31764;SDS011;18338;53.240;8.798;2023-03-01T08:18:39;10.87;;;7.90;;
31764;SDS011;18338;53.240;8.798;2023-03-01T08:21:10;11.57;;;8.00;;
31764;SDS011;18338;53.240;8.798;2023-03-01T08:23:38;11.70;;;8.77;;
31764;SDS011;18338;53.240;8.798;2023-03-01T08:26:16;14.10;;;8.90;;
31764;SDS011;18338;53.240;8.798;2023-03-01T08:28:45;12.73;;;8.77;;
31764;SDS011;18338;53.240;8.798;2023-03-01T08:31:16;11.90;;;8.37;;
31764;SDS011;18338;53.240;8.798;2023-03-01T08:33:47;11.23;;;7.83;;
31764;SDS011;18338;53.240;8.798;2023-03-01T08:36:17;16.37;;;8.50;;
31764;SDS011;18338;53.240;8.798;2023-03-01T08:38:44;9.40;;;6.33;;
31764;SDS011;18338;53.240;8.798;2023-03-01T08:41:11;8.33;;;5.90;;
31764;SDS011;18338;53.240;8.798;2023-03-01T08:43:39;10.07;;;6.30;;
31764;SDS011;18338;53.240;8.798;2023-03-01T08:46:06;10.07;;;5.20;;
31764;SDS011;18338;53.240;8.798;2023-03-01T08:48:33;6.67;;;4.70;;
31764;SDS011;18338;53.240;8.798;2023-03-01T08:51:11;6.13;;;4.27;;
31764;SDS011;18338;53.240;8.798;2023-03-01T08:53:43;6.13;;;4.90;;
31764;SDS011;18338;53.240;8.798;2023-03-01T08:56:10;10.80;;;6.17;;
31764;SDS011;18338;53.240;8.798;2023-03-01T08:58:38;10.05;;;6.80;;
31764;SDS011;18338;53.240;8.798;2023-03-01T09:01:10;7.90;;;6.10;;
31764;SDS011;18338;53.240;8.798;2023-03-01T09:03:47;6.97;;;4.57;;
31764;SDS011;18338;53.240;8.798;2023-03-01T09:06:14;8.25;;;5.13;;
31764;SDS011;18338;53.240;8.798;2023-03-01T09:08:43;9.18;;;6.07;;
31764;SDS011;18338;53.240;8.798;2023-03-01T09:11:16;8.35;;;5.97;;
31764;SDS011;18338;53.240;8.798;2023-03-01T09:13:48;7.75;;;6.40;;
31764;SDS011;18338;53.240;8.798;2023-03-01T09:16:21;10.38;;;6.60;;
31764;SDS011;18338;53.240;8.798;2023-03-01T09:18:55;8.57;;;6.10;;
31764;SDS011;18338;53.240;8.798;2023-03-01T09:21:28;8.25;;;6.63;;
31764;SDS011;18338;53.240;8.798;2023-03-01T09:24:12;10.10;;;7.07;;
31764;SDS011;18338;53.240;8.798;2023-03-01T09:26:44;9.60;;;6.72;;
31764;SDS011;18338;53.240;8.798;2023-03-01T09:29:19;15.68;;;7.82;;
31764;SDS011;18338;53.240;8.798;2023-03-01T09:31:56;11.60;;;7.40;;
31764;SDS011;18338;53.240;8.798;2023-03-01T09:34:25;11.65;;;8.18;;
31764;SDS011;18338;53.240;8.798;2023-03-01T09:37:32;12.55;;;7.07;;
31764;SDS011;18338;53.240;8.798;2023-03-01T09:40:48;12.23;;;6.15;;
31764;SDS011;18338;53.240;8.798;2023-03-01T09:43:52;10.60;;;7.00;;
31764;SDS011;18338;53.240;8.798;2023-03-01T09:46:42;7.47;;;6.18;;
31764;SDS011;18338;53.240;8.798;2023-03-01T09:52:55;11.35;;;6.85;;
31764;SDS011;18338;53.240;8.798;2023-03-01T10:12:16;6.28;;;5.40;;
31764;SDS011;18338;53.240;8.798;2023-03-01T10:15:04;6.57;;;5.68;;
31764;SDS011;18338;53.240;8.798;2023-03-01T10:21:17;6.97;;;5.80;;
31764;SDS011;18338;53.240;8.798;2023-03-01T10:29:03;9.50;;;7.35;;
31764;SDS011;18338;53.240;8.798;2023-03-01T10:35:24;7.75;;;6.25;;
31764;SDS011;18338;53.240;8.798;2023-03-01T10:40:33;8.43;;;6.68;;
31764;SDS011;18338;53.240;8.798;2023-03-01T10:43:02;8.15;;;7.35;;
31764;SDS011;18338;53.240;8.798;2023-03-01T10:45:36;7.85;;;6.93;;
31764;SDS011;18338;53.240;8.798;2023-03-01T10:50:34;7.93;;;7.15;;
31764;SDS011;18338;53.240;8.798;2023-03-01T10:53:05;7.40;;;6.70;;
31764;SDS011;18338;53.240;8.798;2023-03-01T10:56:07;7.95;;;7.25;;
31764;SDS011;18338;53.240;8.798;2023-03-01T10:58:36;7.80;;;7.10;;
31764;SDS011;18338;53.240;8.798;2023-03-01T11:01:05;8.07;;;7.40;;
31764;SDS011;18338;53.240;8.798;2023-03-01T11:06:35;8.75;;;7.97;;
31764;SDS011;18338;53.240;8.798;2023-03-01T11:09:14;8.98;;;8.18;;
31764;SDS011;18338;53.240;8.798;2023-03-01T11:11:46;7.95;;;7.35;;
31764;SDS011;18338;53.240;8.798;2023-03-01T11:14:24;8.63;;;7.90;;
31764;SDS011;18338;53.240;8.798;2023-03-01T11:22:42;7.72;;;7.03;;
31764;SDS011;18338;53.240;8.798;2023-03-01T11:25:26;8.10;;;7.30;;
31764;SDS011;18338;53.240;8.798;2023-03-01T11:27:59;8.15;;;7.45;;
31764;SDS011;18338;53.240;8.798;2023-03-01T11:30:38;8.57;;;7.88;;
31764;SDS011;18338;53.240;8.798;2023-03-01T11:33:40;9.07;;;8.25;;
31764;SDS011;18338;53.240;8.798;2023-03-01T11:38:39;8.35;;;7.63;;
31764;SDS011;18338;53.240;8.798;2023-03-01T11:41:20;9.55;;;8.68;;
31764;SDS011;18338;53.240;8.798;2023-03-01T11:46:54;8.68;;;7.88;;
31764;SDS011;18338;53.240;8.798;2023-03-01T11:52:38;9.30;;;8.50;;
31764;SDS011;18338;53.240;8.798;2023-03-01T11:55:21;9.50;;;8.63;;
31764;SDS011;18338;53.240;8.798;2023-03-01T12:06:30;9.32;;;8.43;;
31764;SDS011;18338;53.240;8.798;2023-03-01T12:09:14;9.35;;;8.55;;
31764;SDS011;18338;53.240;8.798;2023-03-01T12:12:11;11.38;;;10.13;;
31764;SDS011;18338;53.240;8.798;2023-03-01T12:17:18;10.25;;;9.25;;
31764;SDS011;18338;53.240;8.798;2023-03-01T12:28:04;10.40;;;9.50;;
31764;SDS011;18338;53.240;8.798;2023-03-01T12:30:58;10.80;;;9.70;;
31764;SDS011;18338;53.240;8.798;2023-03-01T12:46:25;8.90;;;8.18;;
31764;SDS011;18338;53.240;8.798;2023-03-01T12:49:06;9.60;;;8.80;;
31764;SDS011;18338;53.240;8.798;2023-03-01T12:51:56;9.77;;;8.88;;
31764;SDS011;18338;53.240;8.798;2023-03-01T12:54:51;9.82;;;9.02;;
31764;SDS011;18338;53.240;8.798;2023-03-01T12:57:27;9.60;;;8.77;;
31764;SDS011;18338;53.240;8.798;2023-03-01T13:00:24;9.88;;;8.95;;
31764;SDS011;18338;53.240;8.798;2023-03-01T13:06:15;10.68;;;9.57;;
31764;SDS011;18338;53.240;8.798;2023-03-01T13:08:55;11.00;;;10.00;;
31764;SDS011;18338;53.240;8.798;2023-03-01T13:11:43;10.20;;;9.30;;
31764;SDS011;18338;53.240;8.798;2023-03-01T13:16:49;11.13;;;10.05;;
31764;SDS011;18338;53.240;8.798;2023-03-01T13:19:22;10.60;;;9.60;;
31764;SDS011;18338;53.240;8.798;2023-03-01T13:21:55;11.32;;;10.32;;
31764;SDS011;18338;53.240;8.798;2023-03-01T13:24:43;10.95;;;9.95;;
31764;SDS011;18338;53.240;8.798;2023-03-01T13:29:47;11.50;;;10.50;;
31764;SDS011;18338;53.240;8.798;2023-03-01T13:32:23;11.10;;;10.10;;
31764;SDS011;18338;53.240;8.798;2023-03-01T13:37:41;11.18;;;10.25;;
31764;SDS011;18338;53.240;8.798;2023-03-01T13:42:49;10.60;;;9.70;;
31764;SDS011;18338;53.240;8.798;2023-03-01T13:45:40;10.25;;;9.35;;
31764;SDS011;18338;53.240;8.798;2023-03-01T13:48:11;11.38;;;10.38;;
31764;SDS011;18338;53.240;8.798;2023-03-01T13:50:52;11.00;;;10.10;;
31764;SDS011;18338;53.240;8.798;2023-03-01T13:53:24;12.02;;;10.98;;
31764;SDS011;18338;53.240;8.798;2023-03-01T13:59:05;12.10;;;11.00;;
31764;SDS011;18338;53.240;8.798;2023-03-01T14:01:38;12.80;;;11.52;;
31764;SDS011;18338;53.240;8.798;2023-03-01T14:04:22;11.75;;;10.65;;
31764;SDS011;18338;53.240;8.798;2023-03-01T14:09:44;12.65;;;11.55;;
31764;SDS011;18338;53.240;8.798;2023-03-01T14:15:22;12.48;;;11.38;;
31764;SDS011;18338;53.240;8.798;2023-03-01T14:18:04;11.10;;;10.00;;
31764;SDS011;18338;53.240;8.798;2023-03-01T14:20:45;11.48;;;10.38;;
31764;SDS011;18338;53.240;8.798;2023-03-01T14:23:18;12.55;;;11.38;;
31764;SDS011;18338;53.240;8.798;2023-03-01T14:25:47;12.13;;;11.00;;
31764;SDS011;18338;53.240;8.798;2023-03-01T14:30:49;12.15;;;11.05;;
31764;SDS011;18338;53.240;8.798;2023-03-01T14:33:20;11.63;;;10.43;;
31764;SDS011;18338;53.240;8.798;2023-03-01T14:35:53;11.75;;;10.52;;
31764;SDS011;18338;53.240;8.798;2023-03-01T14:38:21;11.35;;;10.35;;
31764;SDS011;18338;53.240;8.798;2023-03-01T14:40:59;11.93;;;10.82;;
31764;SDS011;18338;53.240;8.798;2023-03-01T14:43:31;12.38;;;11.15;;
31764;SDS011;18338;53.240;8.798;2023-03-01T14:45:59;11.93;;;10.73;;
31764;SDS011;18338;53.240;8.798;2023-03-01T14:48:26;11.52;;;10.32;;
31764;SDS011;18338;53.240;8.798;2023-03-01T14:50:54;11.77;;;10.57;;
31764;SDS011;18338;53.240;8.798;2023-03-01T14:53:25;11.45;;;10.25;;
31764;SDS011;18338;53.240;8.798;2023-03-01T14:55:55;12.32;;;10.93;;
31764;SDS011;18338;53.240;8.798;2023-03-01T14:58:31;11.95;;;10.82;;
31764;SDS011;18338;53.240;8.798;2023-03-01T15:01:00;12.55;;;11.20;;
31764;SDS011;18338;53.240;8.798;2023-03-01T15:03:37;13.75;;;11.50;;
31764;SDS011;18338;53.240;8.798;2023-03-01T15:06:07;12.43;;;11.00;;
31764;SDS011;18338;53.240;8.798;2023-03-01T15:08:35;13.02;;;11.73;;
31764;SDS011;18338;53.240;8.798;2023-03-01T15:13:40;11.90;;;10.57;;
31764;SDS011;18338;53.240;8.798;2023-03-01T15:16:11;12.30;;;11.00;;
31764;SDS011;18338;53.240;8.798;2023-03-01T15:18:43;11.85;;;10.65;;
31764;SDS011;18338;53.240;8.798;2023-03-01T15:21:16;13.13;;;11.73;;
31764;SDS011;18338;53.240;8.798;2023-03-01T15:23:49;12.75;;;11.45;;
31764;SDS011;18338;53.240;8.798;2023-03-01T15:26:36;14.43;;;12.02;;
31764;SDS011;18338;53.240;8.798;2023-03-01T15:29:10;13.48;;;11.75;;
31764;SDS011;18338;53.240;8.798;2023-03-01T15:31:52;12.50;;;11.18;;
31764;SDS011;18338;53.240;8.798;2023-03-01T15:34:31;13.10;;;11.65;;
31764;SDS011;18338;53.240;8.798;2023-03-01T15:37:04;14.00;;;11.43;;
31764;SDS011;18338;53.240;8.798;2023-03-01T15:44:35;13.30;;;11.13;;
31764;SDS011;18338;53.240;8.798;2023-03-01T15:47:23;12.98;;;11.25;;
31764;SDS011;18338;53.240;8.798;2023-03-01T15:49:53;14.77;;;11.60;;
31764;SDS011;18338;53.240;8.798;2023-03-01T15:54:59;14.30;;;11.23;;
31764;SDS011;18338;53.240;8.798;2023-03-01T15:57:28;15.18;;;12.13;;
31764;SDS011;18338;53.240;8.798;2023-03-01T15:59:55;12.82;;;10.63;;
31764;SDS011;18338;53.240;8.798;2023-03-01T16:02:23;13.88;;;11.40;;
31764;SDS011;18338;53.240;8.798;2023-03-01T16:04:50;12.15;;;10.65;;
31764;SDS011;18338;53.240;8.798;2023-03-01T16:07:17;12.85;;;10.57;;
31764;SDS011;18338;53.240;8.798;2023-03-01T16:09:43;14.52;;;11.07;;
31764;SDS011;18338;53.240;8.798;2023-03-01T16:12:12;14.55;;;10.68;;
31764;SDS011;18338;53.240;8.798;2023-03-01T16:14:41;15.75;;;11.45;;
31764;SDS011;18338;53.240;8.798;2023-03-01T16:17:11;16.77;;;11.38;;
31764;SDS011;18338;53.240;8.798;2023-03-01T16:19:42;15.18;;;11.23;;
31764;SDS011;18338;53.240;8.798;2023-03-01T16:22:09;14.93;;;11.23;;
31764;SDS011;18338;53.240;8.798;2023-03-01T16:24:36;17.88;;;12.30;;
31764;SDS011;18338;53.240;8.798;2023-03-01T16:27:03;15.68;;;10.90;;
31764;SDS011;18338;53.240;8.798;2023-03-01T16:29:30;16.23;;;11.30;;
31764;SDS011;18338;53.240;8.798;2023-03-01T16:31:59;17.63;;;12.00;;
31764;SDS011;18338;53.240;8.798;2023-03-01T16:34:27;16.10;;;11.57;;
31764;SDS011;18338;53.240;8.798;2023-03-01T16:36:54;15.27;;;11.70;;
31764;SDS011;18338;53.240;8.798;2023-03-01T16:39:20;16.58;;;11.82;;
31764;SDS011;18338;53.240;8.798;2023-03-01T16:41:47;15.95;;;11.23;;
31764;SDS011;18338;53.240;8.798;2023-03-01T16:44:14;17.98;;;12.07;;
31764;SDS011;18338;53.240;8.798;2023-03-01T16:46:41;17.02;;;11.38;;
31764;SDS011;18338;53.240;8.798;2023-03-01T16:49:09;19.23;;;11.90;;
31764;SDS011;18338;53.240;8.798;2023-03-01T16:51:36;16.85;;;12.13;;
31764;SDS011;18338;53.240;8.798;2023-03-01T16:54:03;18.17;;;12.13;;
31764;SDS011;18338;53.240;8.798;2023-03-01T16:56:30;19.70;;;12.73;;
31764;SDS011;18338;53.240;8.798;2023-03-01T16:58:59;18.15;;;12.32;;
31764;SDS011;18338;53.240;8.798;2023-03-01T17:01:30;22.55;;;13.10;;
31764;SDS011;18338;53.240;8.798;2023-03-01T17:04:03;19.40;;;12.43;;
31764;SDS011;18338;53.240;8.798;2023-03-01T17:06:30;20.37;;;13.03;;
31764;SDS011;18338;53.240;8.798;2023-03-01T17:08:58;19.90;;;13.40;;
31764;SDS011;18338;53.240;8.798;2023-03-01T17:11:25;20.30;;;13.57;;
31764;SDS011;18338;53.240;8.798;2023-03-01T17:13:52;20.20;;;13.53;;
31764;SDS011;18338;53.240;8.798;2023-03-01T17:16:19;22.33;;;15.07;;
31764;SDS011;18338;53.240;8.798;2023-03-01T17:18:46;23.30;;;15.53;;
31764;SDS011;18338;53.240;8.798;2023-03-01T17:21:13;26.17;;;16.13;;